Time;durP1;ratioP1;P1;durP2;ratioP2;P2;SDS_P1;SDS_P2;PMS_P1;PMS_P2;Temp;Humidity;BMP_temperature;BMP_pressure;BME280_temperature;BME280_humidity;BME280_pressure;Samples;Min_cycle;Max_cycle;Signal;HPM_P1;HPM_P2
2021/06/26 00:01:18;;;;;;;29.57;19.32;;;;;;;16.97;75.86;100951.12;1723634;81;27873;-63
2021/06/26 00:03:44;;;;;;;24.23;17.98;;;;;;;16.98;75.94;100953.72;1726869;81;26762;-63
2021/06/26 00:06:10;;;;;;;26.70;19.05;;;;;;;16.99;75.94;100962.72;1729304;81;25724;-63
2021/06/26 00:08:37;;;;;;;30.37;19.12;;;;;;;16.97;75.94;100962.82;1727775;81;25839;-63
2021/06/26 00:11:03;;;;;;;27.37;17.95;;;;;;;16.96;75.98;100973.27;1731426;81;25891;-63
2021/06/26 00:13:29;;;;;;;20.90;16.90;;;;;;;16.95;76.05;100974.72;1731173;81;27551;-62
2021/06/26 00:16:00;;;;;;;27.42;17.48;;;;;;;16.97;76.10;100974.14;1724333;81;25843;-63
2021/06/26 00:18:26;;;;;;;25.65;18.10;;;;;;;16.98;76.10;100972.68;1729415;81;25744;-63
2021/06/26 00:20:52;;;;;;;21.40;16.80;;;;;;;17.00;76.13;100963.11;1716549;80;26155;-63
2021/06/26 00:23:21;;;;;;;23.83;17.12;;;;;;;16.98;76.16;100959.63;1717878;81;26610;-63
2021/06/26 00:25:48;;;;;;;19.50;14.83;;;;;;;16.98;76.16;100957.79;1721641;81;27380;-63
2021/06/26 00:28:16;;;;;;;21.90;15.20;;;;;;;17.01;76.37;100954.02;1715512;81;25973;-63
2021/06/26 00:30:41;;;;;;;21.95;15.55;;;;;;;17.02;76.28;100963.39;1720375;81;26468;-63
2021/06/26 00:33:09;;;;;;;17.55;14.30;;;;;;;17.03;76.31;100956.13;1730576;81;27929;-63
2021/06/26 00:35:37;;;;;;;18.52;15.65;;;;;;;17.04;76.32;100961.45;1711537;81;25805;-63
2021/06/26 00:38:03;;;;;;;25.23;16.17;;;;;;;17.01;76.25;100953.53;1728942;81;27520;-63
2021/06/26 00:40:31;;;;;;;21.93;15.43;;;;;;;16.99;76.28;100955.95;1712692;81;26375;-63
2021/06/26 00:42:59;;;;;;;25.75;16.93;;;;;;;16.99;76.25;100957.30;1719560;81;25751;-63
2021/06/26 00:45:26;;;;;;;20.85;15.60;;;;;;;16.98;76.29;100963.69;1733897;80;25846;-63
2021/06/26 00:47:52;;;;;;;19.77;15.20;;;;;;;16.96;76.29;100967.85;1728238;80;25750;-63
2021/06/26 00:50:22;;;;;;;22.42;15.72;;;;;;;16.93;76.26;100958.57;1726063;81;27093;-63
2021/06/26 00:52:50;;;;;;;22.30;16.05;;;;;;;16.92;76.31;100960.89;1738713;80;25916;-63
2021/06/26 00:55:17;;;;;;;22.05;15.58;;;;;;;16.91;76.37;100959.16;1726074;81;25763;-63
2021/06/26 00:57:54;;;;;;;19.42;16.00;;;;;;;16.90;76.36;100959.25;1727924;81;25893;-63
2021/06/26 01:00:30;;;;;;;21.27;14.47;;;;;;;16.88;76.38;100960.22;1709784;81;25881;-63
2021/06/26 01:02:56;;;;;;;22.15;14.45;;;;;;;16.88;76.38;100958.87;1724405;81;28025;-63
2021/06/26 01:05:26;;;;;;;19.65;15.35;;;;;;;16.88;76.41;100958.00;1716984;81;25771;-63
2021/06/26 01:07:53;;;;;;;22.20;14.93;;;;;;;16.89;76.38;100962.45;1725194;81;25721;-63
2021/06/26 01:10:20;;;;;;;18.90;13.88;;;;;;;16.88;76.33;100958.00;1725625;81;27785;-63
2021/06/26 01:12:48;;;;;;;24.98;15.98;;;;;;;16.84;76.33;100952.39;1726854;80;25847;-63
2021/06/26 01:15:16;;;;;;;22.95;15.32;;;;;;;16.84;76.36;100949.69;1722538;80;29584;-63
2021/06/26 01:17:42;;;;;;;22.10;15.10;;;;;;;16.83;76.33;100948.81;1724310;80;26508;-63
2021/06/26 01:20:12;;;;;;;18.55;14.15;;;;;;;16.82;76.35;100949.78;1723555;81;25723;-63
2021/06/26 01:22:44;;;;;;;21.82;14.60;;;;;;;16.82;76.35;100951.14;1736689;81;25783;-63
2021/06/26 01:25:14;;;;;;;17.05;13.85;;;;;;;16.82;76.33;100956.55;1732623;80;25708;-63
2021/06/26 01:27:42;;;;;;;14.98;12.65;;;;;;;16.82;76.33;100952.98;1729633;81;27367;-63
2021/06/26 01:30:11;;;;;;;22.52;13.93;;;;;;;16.84;76.33;100959.16;1721829;81;25621;-63
2021/06/26 01:32:40;;;;;;;22.32;14.83;;;;;;;16.81;76.24;100952.11;1722621;81;25811;-63
2021/06/26 01:35:09;;;;;;;16.75;14.33;;;;;;;16.79;76.25;100953.17;1713440;81;25720;-63
2021/06/26 01:37:42;;;;;;;20.48;14.50;;;;;;;16.72;76.21;100956.76;1716545;81;25618;-62
2021/06/26 01:40:15;;;;;;;20.75;15.13;;;;;;;16.69;76.23;100962.85;1735908;80;27324;-63
2021/06/26 01:42:45;;;;;;;20.90;15.32;;;;;;;16.63;76.21;100960.02;1734031;81;26384;-63
2021/06/26 01:45:13;;;;;;;24.80;16.65;;;;;;;16.59;76.21;100965.23;1726904;80;25708;-63
2021/06/26 01:47:55;;;;;;;21.82;16.23;;;;;;;16.54;76.27;100954.70;1729700;80;25850;-63
2021/06/26 01:50:24;;;;;;;20.50;16.82;;;;;;;16.52;76.29;100965.23;1727028;81;25775;-63
2021/06/26 01:52:51;;;;;;;24.55;17.00;;;;;;;16.42;76.33;100954.12;1734219;81;29577;-62
2021/06/26 01:55:20;;;;;;;22.75;16.77;;;;;;;16.46;76.35;100962.44;1693712;82;25684;-63
2021/06/26 01:57:49;;;;;;;20.40;16.65;;;;;;;16.42;76.34;100956.83;1683895;83;25708;-63
2021/06/26 02:00:18;;;;;;;27.00;17.67;;;;;;;16.39;76.35;100961.56;1695350;83;25829;-63
2021/06/26 02:02:45;;;;;;;26.40;16.95;;;;;;;16.35;76.38;100962.23;1684592;83;25696;-63
2021/06/26 02:05:13;;;;;;;24.43;17.65;;;;;;;16.31;76.41;100959.81;1683985;82;27532;-63
2021/06/26 02:07:43;;;;;;;24.55;17.45;;;;;;;16.24;76.40;100957.48;1671051;83;25925;-63
2021/06/26 02:10:11;;;;;;;24.45;17.12;;;;;;;16.18;76.45;100955.16;1677346;83;25742;-63
2021/06/26 02:12:38;;;;;;;25.25;17.67;;;;;;;16.16;76.51;100948.98;1687097;83;26793;-62
2021/06/26 02:15:06;;;;;;;22.98;17.45;;;;;;;16.14;76.57;100948.69;1688607;83;25697;-63
2021/06/26 02:17:33;;;;;;;26.70;18.30;;;;;;;16.12;76.60;100948.78;1646712;84;27317;-63
2021/06/26 02:19:59;;;;;;;25.35;18.80;;;;;;;16.09;76.61;100954.86;1686851;83;25815;-63
2021/06/26 02:22:25;;;;;;;27.65;18.15;;;;;;;16.05;76.64;100951.95;1686713;83;25894;-62
2021/06/26 02:24:51;;;;;;;29.77;19.10;;;;;;;16.04;76.71;100954.27;1683072;83;26172;-63
2021/06/26 02:27:21;;;;;;;24.82;17.87;;;;;;;16.02;76.72;100954.36;1689974;83;25908;-63
2021/06/26 02:29:49;;;;;;;24.25;18.25;;;;;;;15.97;76.72;100959.18;1695282;82;27439;-63
2021/06/26 02:32:17;;;;;;;23.12;17.77;;;;;;;15.94;76.80;100959.84;1690766;83;26631;-62
2021/06/26 02:34:43;;;;;;;28.50;17.70;;;;;;;15.91;76.85;100965.83;1686561;83;25657;-63
2021/06/26 02:37:11;;;;;;;24.15;17.73;;;;;;;15.89;76.87;100970.94;1687205;83;25748;-63
2021/06/26 02:39:37;;;;;;;29.77;18.52;;;;;;;15.88;76.95;100979.53;1687521;83;25760;-63
2021/06/26 02:42:03;;;;;;;25.12;18.07;;;;;;;15.88;77.00;100979.53;1681866;83;28185;-63
2021/06/26 02:44:32;;;;;;;27.82;19.37;;;;;;;15.88;77.04;100980.88;1689956;83;25785;-63
2021/06/26 02:46:59;;;;;;;25.05;17.95;;;;;;;15.88;77.04;100983.59;1690607;83;25639;-63
2021/06/26 02:49:24;;;;;;;25.60;18.02;;;;;;;15.86;77.09;100984.16;1682876;83;25819;-63
2021/06/26 02:51:51;;;;;;;27.50;18.55;;;;;;;15.87;77.16;100983.20;1688604;83;25839;-63
2021/06/26 02:54:19;;;;;;;27.35;19.87;;;;;;;15.88;77.21;100982.72;1692659;83;27592;-63
2021/06/26 02:56:46;;;;;;;22.90;17.75;;;;;;;15.88;77.26;100988.99;1686429;83;27211;-63
2021/06/26 02:59:15;;;;;;;33.67;22.73;;;;;;;15.89;77.30;100989.86;1679381;83;26457;-63
2021/06/26 03:01:44;;;;;;;27.70;20.02;;;;;;;15.89;77.35;100989.37;1686055;83;26109;-63
2021/06/26 03:04:10;;;;;;;26.70;18.17;;;;;;;15.91;77.41;100993.34;1692291;83;25737;-63
2021/06/26 03:06:38;;;;;;;27.22;18.62;;;;;;;15.91;77.42;100995.56;1686347;83;27498;-63
2021/06/26 03:09:05;;;;;;;29.25;17.65;;;;;;;15.94;77.46;100994.99;1685384;83;26393;-63
2021/06/26 03:11:31;;;;;;;24.55;17.10;;;;;;;15.97;77.46;100994.81;1688526;83;25839;-63
2021/06/26 03:13:58;;;;;;;27.22;18.60;;;;;;;15.98;77.43;101004.66;1688202;83;25853;-63
2021/06/26 03:16:24;;;;;;;24.57;17.90;;;;;;;15.99;77.50;101013.16;1714389;81;26892;-63
2021/06/26 03:18:55;;;;;;;21.85;17.17;;;;;;;16.02;77.53;101012.98;1716895;81;27435;-63
2021/06/26 03:21:23;;;;;;;23.52;18.20;;;;;;;16.05;77.58;101020.91;1717384;81;27178;-63
2021/06/26 03:23:49;;;;;;;24.30;17.32;;;;;;;16.08;77.61;101017.53;1715842;81;25723;-62
2021/06/26 03:26:16;;;;;;;22.02;16.80;;;;;;;16.12;77.61;101019.58;1715726;81;26290;-63
2021/06/26 03:28:44;;;;;;;25.45;17.95;;;;;;;16.14;77.66;101024.41;1716898;81;25484;-62
2021/06/26 03:31:10;;;;;;;27.45;17.17;;;;;;;16.17;77.69;101021.52;1719047;81;25716;-63
2021/06/26 03:33:37;;;;;;;26.35;18.00;;;;;;;16.22;77.72;101028.88;1723196;80;25901;-64
2021/06/26 03:36:06;;;;;;;29.32;18.65;;;;;;;16.26;77.76;101020.95;1717431;81;25772;-62
2021/06/26 03:38:33;;;;;;;23.65;18.42;;;;;;;16.29;77.78;101012.66;1716846;81;26358;-63
2021/06/26 03:41:01;;;;;;;36.50;21.30;;;;;;;16.35;77.83;101015.47;1715462;81;25767;-63
2021/06/26 03:43:28;;;;;;;47.15;21.57;;;;;;;16.41;77.89;101016.45;1715638;81;27869;-63
2021/06/26 03:45:55;;;;;;;34.03;20.30;;;;;;;16.46;77.90;101016.55;1716611;81;27266;-63
2021/06/26 03:48:23;;;;;;;28.25;19.02;;;;;;;16.51;77.86;101021.19;1716123;81;25775;-63
2021/06/26 03:50:53;;;;;;;30.88;19.98;;;;;;;16.58;77.92;101018.11;1711583;81;25791;-63
2021/06/26 03:53:18;;;;;;;30.43;18.70;;;;;;;16.62;77.91;101019.66;1717334;81;25804;-63
2021/06/26 03:55:51;;;;;;;25.45;18.17;;;;;;;16.68;77.86;101019.30;1724289;80;27552;-63
2021/06/26 03:58:14;;;;;;;26.73;19.37;;;;;;;16.71;77.87;101012.34;1717549;80;25577;-63
2021/06/26 04:00:40;;;;;;;32.08;19.17;;;;;;;16.75;77.88;101012.54;1720911;80;25760;-63
2021/06/26 04:03:06;;;;;;;23.50;18.90;;;;;;;16.79;77.84;101020.37;1692734;81;26202;-63
2021/06/26 04:05:32;;;;;;;31.12;18.57;;;;;;;16.81;77.86;101013.51;1723652;80;25719;-63
2021/06/26 04:07:59;;;;;;;27.87;18.50;;;;;;;16.83;77.86;101016.50;1707474;80;27621;-63
2021/06/26 04:10:27;;;;;;;23.80;17.82;;;;;;;16.87;77.83;101022.59;1718449;80;26451;-63
2021/06/26 04:12:55;;;;;;;30.88;19.95;;;;;;;16.90;77.83;101020.17;1708538;82;26390;-63
2021/06/26 04:15:23;;;;;;;27.13;18.75;;;;;;;16.91;77.79;101025.49;1696853;82;27895;-63
2021/06/26 04:17:49;;;;;;;27.30;19.55;;;;;;;16.93;77.76;101030.33;1697710;81;25790;-63
2021/06/26 04:20:14;;;;;;;24.05;18.42;;;;;;;16.92;77.76;101027.23;1702615;82;27936;-62
2021/06/26 04:22:58;;;;;;;;;;;;;;;;;;;;;
2021/06/26 04:25:14;;;;;;;22.27;17.45;;;;;;;17.02;77.77;101015.33;1700090;82;25744;-63
2021/06/26 04:27:42;;;;;;;21.50;17.32;;;;;;;17.08;77.79;101019.87;1702646;82;25923;-63
2021/06/26 04:30:09;;;;;;;30.43;19.62;;;;;;;17.17;77.78;101015.20;1710014;82;25706;-63
2021/06/26 04:32:40;;;;;;;25.82;17.98;;;;;;;17.27;77.80;101018.67;1705126;82;27453;-63
2021/06/26 04:35:11;;;;;;;24.35;17.15;;;;;;;17.36;77.81;101011.30;1705430;82;25555;-63
2021/06/26 04:37:40;;;;;;;23.45;17.30;;;;;;;17.50;77.79;101011.26;1699265;82;25776;-63
2021/06/26 04:40:10;;;;;;;23.15;17.52;;;;;;;17.61;77.73;101007.34;1709449;80;25746;-62
2021/06/26 04:42:38;;;;;;;25.92;18.30;;;;;;;17.71;77.65;101007.64;1717504;80;25875;-62
2021/06/26 04:45:06;;;;;;;21.65;16.67;;;;;;;17.82;77.63;101014.56;1711326;81;27542;-62
2021/06/26 04:47:34;;;;;;;26.65;19.02;;;;;;;17.92;77.59;101018.39;1707792;82;25941;-62
2021/06/26 04:50:02;;;;;;;27.45;17.90;;;;;;;18.00;77.47;101022.80;1706846;82;25865;-62
2021/06/26 04:52:32;;;;;;;29.85;18.07;;;;;;;18.09;77.49;101019.95;1705244;82;27198;-62
2021/06/26 04:55:02;;;;;;;29.70;18.82;;;;;;;18.16;77.44;101009.92;1701224;82;26015;-62
2021/06/26 04:57:33;;;;;;;30.25;18.42;;;;;;;18.23;77.33;101014.41;1686271;82;26917;-62
2021/06/26 05:00:03;;;;;;;24.32;18.37;;;;;;;18.29;77.21;101013.98;1699944;80;25607;-63
2021/06/26 05:02:32;;;;;;;22.45;18.25;;;;;;;18.32;77.15;101016.97;1746505;80;25633;-62
2021/06/26 05:05:00;;;;;;;32.13;18.95;;;;;;;18.39;77.16;101012.85;1723416;81;25693;-62
2021/06/26 05:07:26;;;;;;;22.80;17.05;;;;;;;18.47;77.07;101014.54;1714784;81;25842;-62
2021/06/26 05:09:53;;;;;;;22.87;17.50;;;;;;;18.50;76.82;101019.75;1728632;80;28363;-62
2021/06/26 05:12:19;;;;;;;28.77;17.15;;;;;;;18.53;76.86;101014.11;1721117;81;25796;-62
2021/06/26 05:14:46;;;;;;;33.75;17.77;;;;;;;18.65;76.87;101010.55;1728176;81;26482;-62
2021/06/26 05:17:14;;;;;;;27.73;17.27;;;;;;;18.70;76.68;101020.60;1730372;81;26306;-63
2021/06/26 05:19:43;;;;;;;23.05;17.15;;;;;;;18.75;76.58;101020.27;1732658;81;25707;-62
2021/06/26 05:22:12;;;;;;;29.87;17.32;;;;;;;18.80;76.53;101014.89;1722418;81;27456;-63
2021/06/26 05:24:38;;;;;;;25.32;17.35;;;;;;;18.87;76.54;101014.45;1734279;81;27131;-62
2021/06/26 05:27:06;;;;;;;26.85;16.60;;;;;;;18.90;76.39;101016.45;1734094;81;25331;-62
2021/06/26 05:29:33;;;;;;;30.52;18.20;;;;;;;18.89;76.29;101015.20;1700318;81;26495;-62
2021/06/26 05:32:00;;;;;;;20.55;17.45;;;;;;;18.87;76.23;101015.32;1675977;83;25578;-62
2021/06/26 05:34:26;;;;;;;25.92;17.32;;;;;;;18.84;76.13;101015.54;1677342;83;27429;-62
2021/06/26 05:36:54;;;;;;;22.58;17.25;;;;;;;18.78;76.06;101014.62;1684790;83;25832;-62
2021/06/26 05:39:21;;;;;;;23.30;17.77;;;;;;;18.78;76.08;101013.27;1669024;83;25712;-62
2021/06/26 05:41:49;;;;;;;29.32;17.98;;;;;;;18.78;76.01;101012.78;1663003;84;27939;-62
2021/06/26 05:44:16;;;;;;;27.05;19.48;;;;;;;18.77;75.95;101014.25;1688825;83;26195;-62
2021/06/26 05:46:43;;;;;;;24.90;18.52;;;;;;;18.76;75.95;101013.86;1675488;83;27471;-62
2021/06/26 05:49:11;;;;;;;25.70;18.57;;;;;;;18.77;75.89;101015.60;1671114;83;26655;-63
2021/06/26 05:51:37;;;;;;;19.70;16.37;;;;;;;18.75;75.90;101013.00;1672336;84;26414;-63
2021/06/26 05:54:04;;;;;;;26.73;17.20;;;;;;;18.75;75.83;101018.92;1678081;82;26482;-62
2021/06/26 05:56:32;;;;;;;32.95;19.23;;;;;;;18.77;75.84;101023.26;1680572;84;40953;-62
2021/06/26 05:58:59;;;;;;;36.53;19.23;;;;;;;18.83;75.84;101031.95;1674598;83;27525;-63
2021/06/26 06:01:25;;;;;;;35.70;18.10;;;;;;;18.90;75.85;101034.11;1663780;84;28267;-62
2021/06/26 06:03:53;;;;;;;38.90;19.52;;;;;;;19.02;75.84;101040.02;1665254;83;25793;-62
2021/06/26 06:06:21;;;;;;;32.40;18.75;;;;;;;19.16;75.81;101035.44;1701414;82;25871;-62
2021/06/26 06:08:47;;;;;;;27.42;17.80;;;;;;;19.31;75.72;101037.03;1699608;82;25673;-63
2021/06/26 06:11:13;;;;;;;32.35;16.73;;;;;;;19.42;75.59;101042.55;1706903;82;27922;-62
2021/06/26 06:13:43;;;;;;;20.57;16.80;;;;;;;19.49;75.49;101040.24;1707716;81;25758;-62
2021/06/26 06:16:17;;;;;;;25.65;17.37;;;;;;;19.53;75.31;101044.50;1717050;82;25742;-63
2021/06/26 06:18:43;;;;;;;22.52;17.00;;;;;;;19.56;75.11;101038.84;1704538;82;25783;-63
2021/06/26 06:21:10;;;;;;;25.97;17.23;;;;;;;19.57;75.10;101037.36;1702943;82;25715;-62
2021/06/26 06:23:40;;;;;;;27.73;15.55;;;;;;;19.63;75.11;101039.63;1673766;83;27043;-62
2021/06/26 06:26:07;;;;;;;17.80;15.38;;;;;;;19.73;75.05;101042.03;1667795;84;26402;-63
2021/06/26 06:28:35;;;;;;;17.20;13.95;;;;;;;19.83;74.91;101044.92;1663856;84;25919;-63
2021/06/26 06:31:02;;;;;;;18.75;13.70;;;;;;;19.92;74.82;101041.51;1720646;81;26149;-62
2021/06/26 06:33:32;;;;;;;20.82;12.95;;;;;;;20.04;74.57;101046.50;1706386;82;26087;-63
2021/06/26 06:36:06;;;;;;;16.57;13.15;;;;;;;20.08;74.51;101036.63;1714277;82;26760;-63
2021/06/26 06:38:31;;;;;;;16.02;13.30;;;;;;;20.17;74.29;101024.66;1685218;82;25894;-63
2021/06/26 06:40:58;;;;;;;20.17;13.72;;;;;;;20.27;74.13;101036.08;1698579;82;26133;-62
2021/06/26 06:43:25;;;;;;;20.95;12.93;;;;;;;20.38;74.14;101053.84;1708058;82;26266;-62
2021/06/26 06:45:50;;;;;;;19.95;13.88;;;;;;;20.42;73.80;101050.38;1713757;82;25773;-62
2021/06/26 06:48:17;;;;;;;20.20;14.00;;;;;;;20.44;73.48;101045.69;1706213;82;27573;-63
2021/06/26 06:50:44;;;;;;;19.57;12.55;;;;;;;20.50;73.44;101044.34;1705150;82;25943;-64
2021/06/26 06:53:10;;;;;;;20.40;13.93;;;;;;;20.50;73.10;101022.55;1704093;82;25820;-62
2021/06/26 06:55:36;;;;;;;20.97;12.33;;;;;;;20.50;73.10;101022.55;1710521;81;25817;-62
2021/06/26 06:58:05;;;;;;;16.02;12.80;;;;;;;20.78;73.10;101041.17;1706949;82;25496;-62
2021/06/26 07:00:34;;;;;;;15.63;12.40;;;;;;;20.84;72.76;101039.28;1707396;82;28007;-62
2021/06/26 07:03:00;;;;;;;21.52;12.63;;;;;;;20.81;72.48;101031.36;1708944;81;25679;-61
2021/06/26 07:05:26;;;;;;;20.02;14.28;;;;;;;20.97;72.44;101043.25;1714557;81;25769;-64
2021/06/26 07:07:51;;;;;;;21.70;13.93;;;;;;;21.11;72.37;101047.59;1713044;82;27996;-62
2021/06/26 07:10:21;;;;;;;22.77;13.15;;;;;;;21.18;72.04;101047.47;1706983;82;26474;-61
2021/06/26 07:12:48;;;;;;;20.75;11.93;;;;;;;21.14;71.45;101055.02;1714942;82;27420;-61
2021/06/26 07:15:15;;;;;;;17.23;12.60;;;;;;;21.04;71.19;101050.81;1708094;82;26456;-62
2021/06/26 07:17:43;;;;;;;19.67;13.30;;;;;;;21.11;71.06;101042.14;1718091;82;25702;-63
2021/06/26 07:20:12;;;;;;;23.35;13.62;;;;;;;21.07;70.82;101050.56;1707375;82;25825;-64
2021/06/26 07:22:39;;;;;;;61.63;16.20;;;;;;;20.99;70.66;101048.95;1707700;82;25503;-64
2021/06/26 07:25:07;;;;;;;29.92;14.43;;;;;;;20.96;70.66;101056.02;1707764;82;27592;-63
2021/06/26 07:27:34;;;;;;;18.92;11.95;;;;;;;20.83;70.30;101053.89;1707678;82;25968;-64
2021/06/26 07:30:00;;;;;;;25.95;14.07;;;;;;;20.66;70.63;101046.23;1700412;82;25801;-61
2021/06/26 07:32:27;;;;;;;72.15;14.68;;;;;;;20.66;70.63;101046.23;1709638;82;25875;-63
2021/06/26 07:34:57;;;;;;;25.62;13.83;;;;;;;20.63;70.32;101045.98;1706929;82;25818;-64
2021/06/26 07:37:23;;;;;;;22.00;12.00;;;;;;;20.54;70.20;101047.20;1705419;82;27387;-63
2021/06/26 07:39:49;;;;;;;18.87;13.00;;;;;;;20.43;69.65;101051.25;1710556;81;25779;-63
2021/06/26 07:42:15;;;;;;;20.90;13.28;;;;;;;20.32;69.84;101054.77;1708263;82;25793;-64
2021/06/26 07:44:42;;;;;;;22.10;12.55;;;;;;;20.28;69.77;101058.23;1709645;82;25840;-63
2021/06/26 07:47:08;;;;;;;20.62;11.85;;;;;;;20.17;69.58;101056.83;1706067;82;26349;-63
2021/06/26 07:49:37;;;;;;;19.12;13.32;;;;;;;20.01;69.63;101038.08;1708920;82;27505;-63
2021/06/26 07:52:06;;;;;;;21.85;13.55;;;;;;;19.92;69.27;101039.28;1707123;82;25756;-63
2021/06/26 07:54:33;;;;;;;40.88;16.97;;;;;;;19.82;69.43;101031.44;1710065;82;25548;-61
2021/06/26 07:57:01;;;;;;;49.88;15.88;;;;;;;19.82;69.43;101031.44;1712683;82;25846;-62
2021/06/26 07:59:33;;;;;;;21.05;15.48;;;;;;;19.76;69.39;101057.25;1708657;82;25539;-63
2021/06/26 08:02:00;;;;;;;25.15;14.78;;;;;;;19.62;69.86;101057.41;1723317;79;27411;-62
2021/06/26 08:04:29;;;;;;;25.65;15.20;;;;;;;19.57;70.14;101057.76;1723114;81;25738;-63
2021/06/26 08:06:58;;;;;;;19.67;15.18;;;;;;;19.51;70.17;101055.46;1728840;81;25699;-64
2021/06/26 08:09:26;;;;;;;21.87;15.15;;;;;;;19.51;70.17;101055.46;1715065;81;25753;-64
2021/06/26 08:11:52;;;;;;;23.57;15.25;;;;;;;19.49;70.04;101053.34;1723363;81;26430;-62
2021/06/26 08:14:22;;;;;;;23.40;14.53;;;;;;;19.46;70.09;101049.49;1727346;81;27451;-63
2021/06/26 08:16:49;;;;;;;22.80;14.95;;;;;;;19.48;70.20;101051.61;1726360;81;25893;-62
2021/06/26 08:19:17;;;;;;;23.47;14.45;;;;;;;19.53;70.26;101054.89;1731760;81;26477;-77
2021/06/26 08:21:46;;;;;;;24.10;15.40;;;;;;;19.51;70.34;101064.11;1731360;80;25723;-62
2021/06/26 08:24:12;;;;;;;23.00;14.78;;;;;;;19.51;70.34;101064.11;1727126;80;25746;-63
2021/06/26 08:26:38;;;;;;;24.12;15.93;;;;;;;19.48;70.19;101067.92;1726758;80;27487;-62
2021/06/26 08:29:05;;;;;;;28.40;14.95;;;;;;;19.46;70.26;101061.73;1730707;80;25767;-62
2021/06/26 08:31:33;;;;;;;24.82;16.23;;;;;;;19.46;70.32;101062.59;1745987;80;26091;-63
2021/06/26 08:34:00;;;;;;;25.90;17.75;;;;;;;19.51;70.39;101065.47;1741952;80;25852;-63
2021/06/26 08:36:27;;;;;;;27.45;16.73;;;;;;;19.61;70.48;101066.06;1726164;80;25749;-63
2021/06/26 08:38:55;;;;;;;26.77;18.30;;;;;;;19.65;70.36;101071.65;1729885;81;27441;-63
2021/06/26 08:41:21;;;;;;;20.48;17.00;;;;;;;19.67;70.43;101070.18;1725455;81;25704;-62
2021/06/26 08:43:48;;;;;;;25.90;16.97;;;;;;;19.76;70.61;101068.13;1739721;79;25796;-62
2021/06/26 08:46:16;;;;;;;24.45;17.45;;;;;;;19.76;70.61;101068.13;1684237;82;27913;-62
2021/06/26 08:48:45;;;;;;;24.07;17.77;;;;;;;19.84;70.80;101067.55;1703223;82;25736;-62
2021/06/26 08:51:11;;;;;;;23.57;16.50;;;;;;;19.84;70.80;101067.55;1696801;82;28317;-64
2021/06/26 08:53:39;;;;;;;24.25;16.00;;;;;;;19.96;70.87;101077.52;1678854;83;26537;-64
2021/06/26 08:56:05;;;;;;;60.45;17.10;;;;;;;20.12;70.92;101069.92;1671462;84;26752;-63
2021/06/26 08:58:34;;;;;;;31.65;15.93;;;;;;;20.26;70.47;101045.23;1679707;82;26540;-63
2021/06/26 09:01:00;;;;;;;23.30;15.15;;;;;;;20.26;70.47;101045.23;1731443;81;26101;-64
2021/06/26 09:03:28;;;;;;;20.52;15.00;;;;;;;20.56;70.76;101069.23;1736246;81;27406;-64
2021/06/26 09:06:03;;;;;;;21.15;13.93;;;;;;;20.76;70.48;101066.30;1723893;81;27141;-63
2021/06/26 09:08:29;;;;;;;22.70;15.35;;;;;;;20.87;69.73;101068.14;1724449;81;25761;-64
2021/06/26 09:10:58;;;;;;;52.08;15.55;;;;;;;20.91;69.72;101068.27;1719165;81;25881;-64
2021/06/26 09:13:29;;;;;;;93.40;17.32;;;;;;;21.04;69.76;101064.44;1732624;80;26112;-63
2021/06/26 09:16:15;;;;;;;190.65;21.80;;;;;;;21.18;69.56;101059.73;1707175;82;27540;-64
2021/06/26 09:18:47;;;;;;;15.00;10.75;;;;;;;21.32;69.30;101052.70;1721821;81;25628;-64
2021/06/26 09:21:29;;;;;;;13.68;9.70;;;;;;;21.36;68.79;101057.77;1725133;81;25973;-64
2021/06/26 09:24:07;;;;;;;222.05;20.35;;;;;;;21.39;68.45;101053.42;1686797;82;26495;-63
2021/06/26 09:26:36;;;;;;;64.60;11.50;;;;;;;21.47;68.10;101047.84;1698118;82;25649;-64
2021/06/26 09:29:20;;;;;;;74.65;13.32;;;;;;;21.55;67.90;101050.30;1689023;82;27417;-64
2021/06/26 09:31:56;;;;;;;24.25;10.32;;;;;;;21.68;67.54;101042.83;1679228;82;25825;-64
2021/06/26 09:34:37;;;;;;;13.95;9.08;;;;;;;21.71;67.06;101042.58;1672514;83;26159;-64
2021/06/26 09:37:07;;;;;;;13.98;8.83;;;;;;;21.74;66.90;101040.59;1666066;83;27965;-64
2021/06/26 09:39:43;;;;;;;15.08;9.10;;;;;;;21.80;66.75;101035.48;1659963;84;25820;-64
2021/06/26 09:42:22;;;;;;;11.75;7.75;;;;;;;21.79;66.41;101030.16;1664402;83;27454;-64
2021/06/26 09:45:01;;;;;;;14.70;8.05;;;;;;;21.86;66.15;101027.27;1676479;83;26272;-63
2021/06/26 09:47:40;;;;;;;10.45;7.58;;;;;;;21.76;65.30;101035.87;1673808;83;25845;-64
2021/06/26 09:50:20;;;;;;;9.50;6.75;;;;;;;21.65;64.79;101035.41;1686210;83;26490;-64
2021/06/26 09:52:53;;;;;;;11.35;6.65;;;;;;;21.64;64.55;101031.80;1685820;83;28482;-64
2021/06/26 09:55:39;;;;;;;10.50;6.10;;;;;;;21.62;64.30;101041.98;1690664;83;26972;-64
2021/06/26 09:58:16;;;;;;;12.78;6.37;;;;;;;21.64;63.94;101037.27;1689640;83;27211;-64
2021/06/26 10:00:44;;;;;;;6.72;5.15;;;;;;;21.58;63.32;101033.68;1685712;83;26456;-64
2021/06/26 10:03:15;;;;;;;24.02;6.37;;;;;;;21.58;62.73;101033.68;1682793;83;26501;-64
2021/06/26 10:05:44;;;;;;;9.53;5.50;;;;;;;21.60;62.06;101034.92;1683786;82;25880;-64
2021/06/26 10:08:10;;;;;;;7.15;4.87;;;;;;;21.62;61.95;101036.52;1662738;84;27395;-64
2021/06/26 10:10:38;;;;;;;6.45;4.85;;;;;;;21.63;61.09;101031.44;1658778;84;25807;-65
2021/06/26 10:13:08;;;;;;;13.45;5.53;;;;;;;21.67;61.25;101031.55;1659775;84;26592;-64
2021/06/26 10:15:35;;;;;;;7.50;4.47;;;;;;;21.89;61.09;101032.48;1666324;84;26385;-65
2021/06/26 10:18:03;;;;;;;18.57;5.67;;;;;;;22.09;60.79;101029.45;1668063;83;25702;-65
2021/06/26 10:20:29;;;;;;;16.85;5.15;;;;;;;22.23;60.88;101028.63;1670454;84;29506;-66
2021/06/26 10:23:02;;;;;;;19.45;4.50;;;;;;;22.38;60.81;101024.21;1670752;84;25944;-63
2021/06/26 10:25:40;;;;;;;7.20;4.62;;;;;;;22.51;60.01;101036.67;1665618;84;26465;-63
2021/06/26 10:28:16;;;;;;;8.63;5.42;;;;;;;22.41;58.91;101032.14;1664886;84;26115;-63
2021/06/26 10:30:46;;;;;;;8.53;4.25;;;;;;;22.41;59.17;101032.14;1650757;84;26450;-63
2021/06/26 10:33:12;;;;;;;;;;;;;;;22.45;58.87;101031.73;1669421;84;28248;-63
2021/06/26 10:35:45;;;;;;;9.00;4.42;;;;;;;22.58;58.25;101026.07;1664822;84;25746;-63
2021/06/26 10:38:14;;;;;;;6.35;4.37;;;;;;;22.63;58.37;101025.17;1660242;83;25912;-64
2021/06/26 10:40:53;;;;;;;14.13;4.30;;;;;;;22.75;58.07;101025.45;1672489;83;26510;-65
2021/06/26 10:43:29;;;;;;;5.80;4.00;;;;;;;22.87;57.62;101023.03;1665574;84;25920;-64
2021/06/26 10:46:15;;;;;;;30.30;5.30;;;;;;;22.88;56.83;101022.03;1662609;84;27364;-65
2021/06/26 10:49:02;;;;;;;40.10;5.22;;;;;;;22.90;56.88;101021.89;1660856;83;26370;-64
2021/06/26 10:51:41;;;;;;;7.20;3.85;;;;;;;22.98;57.00;101020.20;1713964;80;25841;-64
2021/06/26 10:54:19;;;;;;;5.55;4.25;;;;;;;22.98;55.66;101012.51;1709352;80;26027;-64
2021/06/26 10:56:49;;;;;;;9.23;5.53;;;;;;;22.89;54.98;101018.30;1712108;82;25716;-64
2021/06/26 10:59:19;;;;;;;20.47;5.13;;;;;;;22.95;55.24;101024.58;1705978;82;27319;-64
2021/06/26 11:02:00;;;;;;;18.07;5.15;;;;;;;23.09;55.16;101014.28;1710916;82;26477;-64
2021/06/26 11:04:28;;;;;;;26.77;5.45;;;;;;;23.22;54.71;101006.70;1711719;81;25953;-64
2021/06/26 11:07:07;;;;;;;8.30;4.78;;;;;;;23.31;54.11;101005.36;1718082;80;25792;-65
2021/06/26 11:09:45;;;;;;;9.45;4.83;;;;;;;23.45;54.31;101004.06;1692075;82;26222;-64
2021/06/26 11:12:19;;;;;;;8.58;4.22;;;;;;;23.70;54.38;101008.68;1706931;82;27389;-64
2021/06/26 11:14:59;;;;;;;9.18;4.70;;;;;;;23.92;54.43;101002.43;1714573;82;26407;-64
2021/06/26 11:17:41;;;;;;;15.15;5.37;;;;;;;24.00;53.77;100996.23;1708618;82;25747;-64
2021/06/26 11:20:14;;;;;;;9.70;5.72;;;;;;;24.12;53.83;100991.47;1702262;82;26210;-64